Eagar, Arizona
Current Conditions -  °F | °C
As of 12:54 PM on Monday 22 Dec 2014 (Local Time) from KSJN Reporting Station
Clear Clear  
Wind Chill: 57°   Ceiling: Unl
Heat Index: 57°   Visibility: 10mi
Dew Point: 34°   Wind: 15mph
Humidity: 42%   Direction: 280°W
Pressure: 29.89"   Gusts: NA
Location:  34.11°N, 109.29°W
Report Text: KSJN 221954Z AUTO 28013KT 10SM CLR 14/01 A2989 RMK AO2 PRESFR SLP083 T01390011
Loading
Personal Weather Stations






























Interactive Weather Map New forecast layout! Learn more

10-Day Weather Forecast

Advertisements
Track Severe Weather on mobile